sensor_id;sensor_type;location;lat;lon;timestamp;pressure;altitude;pressure_sealevel;temperature;humidity
21234;BME280;10774;42.178;26.578;2023-04-05T00:01:21;99301.28;;;6.27;100.00
21234;BME280;10774;42.178;26.578;2023-04-05T00:03:50;99287.13;;;6.11;100.00
21234;BME280;10774;42.178;26.578;2023-04-05T00:06:16;99294.44;;;6.23;100.00
21234;BME280;10774;42.178;26.578;2023-04-05T00:08:43;99293.75;;;6.19;100.00
21234;BME280;10774;42.178;26.578;2023-04-05T00:11:14;99305.41;;;6.17;100.00
21234;BME280;10774;42.178;26.578;2023-04-05T00:13:40;99302.59;;;6.20;100.00
21234;BME280;10774;42.178;26.578;2023-04-05T00:16:06;99283.94;;;6.04;100.00
21234;BME280;10774;42.178;26.578;2023-04-05T00:18:32;99291.78;;;6.07;100.00
21234;BME280;10774;42.178;26.578;2023-04-05T00:20:58;99284.03;;;6.02;100.00
21234;BME280;10774;42.178;26.578;2023-04-05T00:23:24;99307.31;;;6.15;100.00
21234;BME280;10774;42.178;26.578;2023-04-05T00:25:51;99295.81;;;5.98;100.00
21234;BME280;10774;42.178;26.578;2023-04-05T00:28:16;99295.66;;;6.01;100.00
21234;BME280;10774;42.178;26.578;2023-04-05T00:30:42;99294.19;;;6.12;100.00
21234;BME280;10774;42.178;26.578;2023-04-05T00:33:07;99297.38;;;6.02;100.00
21234;BME280;10774;42.178;26.578;2023-04-05T00:35:33;99301.59;;;6.07;100.00
21234;BME280;10774;42.178;26.578;2023-04-05T00:37:58;99292.69;;;6.06;100.00
21234;BME280;10774;42.178;26.578;2023-04-05T00:40:23;99304.03;;;6.41;100.00
21234;BME280;10774;42.178;26.578;2023-04-05T00:42:49;99309.34;;;6.57;100.00
21234;BME280;10774;42.178;26.578;2023-04-05T00:45:14;99304.69;;;6.76;100.00
21234;BME280;10774;42.178;26.578;2023-04-05T00:47:41;99326.47;;;6.99;100.00
21234;BME280;10774;42.178;26.578;2023-04-05T00:50:08;99333.78;;;6.95;100.00
21234;BME280;10774;42.178;26.578;2023-04-05T00:52:34;99329.19;;;6.83;100.00
21234;BME280;10774;42.178;26.578;2023-04-05T00:55:02;99306.78;;;6.55;100.00
21234;BME280;10774;42.178;26.578;2023-04-05T00:57:30;99319.34;;;6.22;100.00
21234;BME280;10774;42.178;26.578;2023-04-05T00:59:59;99333.47;;;6.24;100.00
21234;BME280;10774;42.178;26.578;2023-04-05T01:02:32;99337.66;;;5.96;100.00
21234;BME280;10774;42.178;26.578;2023-04-05T01:05:02;99336.03;;;6.10;100.00
21234;BME280;10774;42.178;26.578;2023-04-05T01:08:32;99340.25;;;6.14;100.00
21234;BME280;10774;42.178;26.578;2023-04-05T01:10:50;99328.47;;;6.02;100.00
21234;BME280;10774;42.178;26.578;2023-04-05T01:13:19;99335.75;;;5.98;100.00
21234;BME280;10774;42.178;26.578;2023-04-05T01:15:45;99333.56;;;5.89;100.00
21234;BME280;10774;42.178;26.578;2023-04-05T01:18:11;99335.28;;;5.90;100.00
21234;BME280;10774;42.178;26.578;2023-04-05T01:20:48;99344.38;;;6.35;100.00
21234;BME280;10774;42.178;26.578;2023-04-05T01:31:50;99347.97;;;7.26;100.00
21234;BME280;10774;42.178;26.578;2023-04-05T01:34:41;99355.06;;;7.41;100.00
21234;BME280;10774;42.178;26.578;2023-04-05T01:37:11;99345.84;;;7.17;100.00
21234;BME280;10774;42.178;26.578;2023-04-05T01:39:38;99351.50;;;7.26;100.00
21234;BME280;10774;42.178;26.578;2023-04-05T01:42:05;99357.47;;;7.46;100.00
21234;BME280;10774;42.178;26.578;2023-04-05T01:44:30;99357.94;;;7.52;100.00
21234;BME280;10774;42.178;26.578;2023-04-05T01:46:55;99353.38;;;7.69;100.00
21234;BME280;10774;42.178;26.578;2023-04-05T01:49:22;99354.06;;;7.72;100.00
21234;BME280;10774;42.178;26.578;2023-04-05T01:51:49;99361.69;;;7.93;100.00
21234;BME280;10774;42.178;26.578;2023-04-05T01:54:14;99367.91;;;7.93;100.00
21234;BME280;10774;42.178;26.578;2023-04-05T01:56:40;99365.03;;;8.10;100.00
21234;BME280;10774;42.178;26.578;2023-04-05T01:59:05;99363.47;;;8.06;100.00
21234;BME280;10774;42.178;26.578;2023-04-05T02:01:30;99367.34;;;8.02;100.00
21234;BME280;10774;42.178;26.578;2023-04-05T02:03:56;99361.03;;;7.89;100.00
21234;BME280;10774;42.178;26.578;2023-04-05T02:06:22;99363.59;;;7.91;100.00
21234;BME280;10774;42.178;26.578;2023-04-05T02:08:47;99368.28;;;7.87;100.00
21234;BME280;10774;42.178;26.578;2023-04-05T02:11:13;99368.00;;;7.77;100.00
21234;BME280;10774;42.178;26.578;2023-04-05T02:13:38;99378.41;;;7.82;100.00
21234;BME280;10774;42.178;26.578;2023-04-05T02:16:04;99375.47;;;7.42;100.00
21234;BME280;10774;42.178;26.578;2023-04-05T02:18:29;99373.31;;;7.19;100.00
21234;BME280;10774;42.178;26.578;2023-04-05T02:21:05;99380.56;;;6.87;100.00
21234;BME280;10774;42.178;26.578;2023-04-05T02:23:32;99375.16;;;6.25;100.00
21234;BME280;10774;42.178;26.578;2023-04-05T02:25:58;99378.56;;;6.74;100.00
21234;BME280;10774;42.178;26.578;2023-04-05T02:28:24;99369.78;;;6.88;100.00
21234;BME280;10774;42.178;26.578;2023-04-05T02:30:50;99377.88;;;7.17;100.00
21234;BME280;10774;42.178;26.578;2023-04-05T02:33:15;99369.47;;;7.08;100.00
21234;BME280;10774;42.178;26.578;2023-04-05T02:35:41;99379.94;;;7.12;100.00
21234;BME280;10774;42.178;26.578;2023-04-05T02:38:06;99370.16;;;7.12;100.00
21234;BME280;10774;42.178;26.578;2023-04-05T02:40:51;99377.53;;;7.23;100.00
21234;BME280;10774;42.178;26.578;2023-04-05T02:43:41;99387.25;;;7.24;100.00
21234;BME280;10774;42.178;26.578;2023-04-05T02:46:06;99388.38;;;7.20;100.00
21234;BME280;10774;42.178;26.578;2023-04-05T02:48:31;99384.06;;;7.33;100.00
21234;BME280;10774;42.178;26.578;2023-04-05T02:50:57;99382.31;;;7.32;100.00
21234;BME280;10774;42.178;26.578;2023-04-05T02:53:22;99384.81;;;7.35;100.00
21234;BME280;10774;42.178;26.578;2023-04-05T02:55:55;99391.38;;;7.29;100.00
21234;BME280;10774;42.178;26.578;2023-04-05T02:58:49;99397.84;;;7.25;100.00
21234;BME280;10774;42.178;26.578;2023-04-05T03:01:15;99386.66;;;7.19;100.00
21234;BME280;10774;42.178;26.578;2023-04-05T03:03:42;99396.16;;;7.08;100.00
21234;BME280;10774;42.178;26.578;2023-04-05T03:06:07;99395.63;;;6.72;100.00
21234;BME280;10774;42.178;26.578;2023-04-05T03:08:40;99406.28;;;6.56;100.00
21234;BME280;10774;42.178;26.578;2023-04-05T03:11:11;99405.69;;;6.67;100.00
21234;BME280;10774;42.178;26.578;2023-04-05T03:13:36;99414.88;;;6.77;100.00
21234;BME280;10774;42.178;26.578;2023-04-05T03:16:02;99421.19;;;6.76;100.00
21234;BME280;10774;42.178;26.578;2023-04-05T03:18:28;99427.97;;;6.50;100.00
21234;BME280;10774;42.178;26.578;2023-04-05T03:20:55;99425.31;;;6.66;100.00
21234;BME280;10774;42.178;26.578;2023-04-05T03:23:26;99427.38;;;6.61;100.00
21234;BME280;10774;42.178;26.578;2023-04-05T03:26:02;99432.19;;;6.70;100.00
21234;BME280;10774;42.178;26.578;2023-04-05T03:28:30;99436.47;;;6.88;100.00
21234;BME280;10774;42.178;26.578;2023-04-05T03:30:59;99438.44;;;6.85;100.00
21234;BME280;10774;42.178;26.578;2023-04-05T03:33:25;99447.31;;;6.85;100.00
21234;BME280;10774;42.178;26.578;2023-04-05T03:35:50;99440.41;;;6.00;100.00
21234;BME280;10774;42.178;26.578;2023-04-05T03:38:16;99433.84;;;5.73;100.00
21234;BME280;10774;42.178;26.578;2023-04-05T03:40:41;99440.41;;;6.00;100.00
21234;BME280;10774;42.178;26.578;2023-04-05T03:43:07;99448.44;;;5.66;100.00
21234;BME280;10774;42.178;26.578;2023-04-05T03:45:33;99452.69;;;6.20;100.00
21234;BME280;10774;42.178;26.578;2023-04-05T03:47:58;99443.69;;;6.23;100.00
21234;BME280;10774;42.178;26.578;2023-04-05T03:50:25;99456.16;;;6.38;100.00
21234;BME280;10774;42.178;26.578;2023-04-05T03:52:53;99448.19;;;6.54;100.00
21234;BME280;10774;42.178;26.578;2023-04-05T03:55:18;99453.09;;;6.62;100.00
21234;BME280;10774;42.178;26.578;2023-04-05T03:57:44;99456.50;;;6.64;100.00
21234;BME280;10774;42.178;26.578;2023-04-05T04:00:10;99466.91;;;6.37;100.00
21234;BME280;10774;42.178;26.578;2023-04-05T04:02:48;99462.97;;;6.44;100.00
21234;BME280;10774;42.178;26.578;2023-04-05T04:05:15;99459.13;;;6.32;100.00
21234;BME280;10774;42.178;26.578;2023-04-05T04:07:42;99452.91;;;6.16;100.00
21234;BME280;10774;42.178;26.578;2023-04-05T04:10:10;99465.53;;;6.45;100.00
21234;BME280;10774;42.178;26.578;2023-04-05T04:12:36;99465.34;;;6.48;100.00
21234;BME280;10774;42.178;26.578;2023-04-05T04:15:02;99471.59;;;6.65;100.00
21234;BME280;10774;42.178;26.578;2023-04-05T04:17:29;99467.78;;;6.85;100.00
21234;BME280;10774;42.178;26.578;2023-04-05T04:19:55;99465.97;;;6.85;100.00
21234;BME280;10774;42.178;26.578;2023-04-05T04:22:22;99465.06;;;6.86;100.00
21234;BME280;10774;42.178;26.578;2023-04-05T04:24:51;99472.75;;;7.06;100.00
21234;BME280;10774;42.178;26.578;2023-04-05T04:27:18;99471.25;;;7.02;100.00
21234;BME280;10774;42.178;26.578;2023-04-05T04:29:46;99468.38;;;7.05;100.00
21234;BME280;10774;42.178;26.578;2023-04-05T04:32:15;99470.38;;;7.18;100.00
21234;BME280;10774;42.178;26.578;2023-04-05T04:34:41;99482.41;;;7.25;100.00
21234;BME280;10774;42.178;26.578;2023-04-05T04:37:12;99488.69;;;7.24;100.00
21234;BME280;10774;42.178;26.578;2023-04-05T04:39:45;99483.22;;;7.41;100.00
21234;BME280;10774;42.178;26.578;2023-04-05T04:42:15;99499.91;;;7.60;100.00
21234;BME280;10774;42.178;26.578;2023-04-05T04:44:47;99486.66;;;7.43;100.00
21234;BME280;10774;42.178;26.578;2023-04-05T04:47:13;99487.72;;;7.41;100.00
21234;BME280;10774;42.178;26.578;2023-04-05T04:49:42;99486.66;;;7.73;100.00
21234;BME280;10774;42.178;26.578;2023-04-05T04:52:07;99487.72;;;7.85;100.00
21234;BME280;10774;42.178;26.578;2023-04-05T04:54:34;99495.63;;;8.02;100.00
21234;BME280;10774;42.178;26.578;2023-04-05T04:57:00;99492.34;;;8.11;100.00
21234;BME280;10774;42.178;26.578;2023-04-05T04:59:27;99496.00;;;8.10;100.00
21234;BME280;10774;42.178;26.578;2023-04-05T05:01:52;99512.47;;;8.47;100.00
21234;BME280;10774;42.178;26.578;2023-04-05T05:04:17;99510.38;;;8.52;100.00
21234;BME280;10774;42.178;26.578;2023-04-05T05:06:43;99513.84;;;8.54;100.00
21234;BME280;10774;42.178;26.578;2023-04-05T05:09:08;99507.69;;;8.38;100.00
21234;BME280;10774;42.178;26.578;2023-04-05T05:11:34;99504.78;;;8.27;100.00
21234;BME280;10774;42.178;26.578;2023-04-05T05:13:59;99519.91;;;8.42;100.00
21234;BME280;10774;42.178;26.578;2023-04-05T05:16:25;99515.56;;;8.55;100.00
21234;BME280;10774;42.178;26.578;2023-04-05T05:18:51;99515.34;;;8.58;100.00
21234;BME280;10774;42.178;26.578;2023-04-05T05:21:17;99520.50;;;8.47;100.00
21234;BME280;10774;42.178;26.578;2023-04-05T05:23:42;99523.06;;;8.63;100.00
21234;BME280;10774;42.178;26.578;2023-04-05T05:26:08;99522.03;;;8.66;100.00
21234;BME280;10774;42.178;26.578;2023-04-05T05:28:33;99529.50;;;8.60;99.58
21234;BME280;10774;42.178;26.578;2023-04-05T05:30:58;99537.31;;;8.63;98.46
21234;BME280;10774;42.178;26.578;2023-04-05T05:33:24;99540.94;;;8.77;98.53
21234;BME280;10774;42.178;26.578;2023-04-05T05:35:50;99544.00;;;8.85;97.86
21234;BME280;10774;42.178;26.578;2023-04-05T05:38:17;99542.44;;;8.95;98.58
21234;BME280;10774;42.178;26.578;2023-04-05T05:40:42;99549.56;;;8.82;97.22
21234;BME280;10774;42.178;26.578;2023-04-05T05:43:08;99553.34;;;8.05;96.54
21234;BME280;10774;42.178;26.578;2023-04-05T05:45:35;99556.75;;;7.63;98.13
21234;BME280;10774;42.178;26.578;2023-04-05T05:48:00;99545.53;;;7.72;100.00
21234;BME280;10774;42.178;26.578;2023-04-05T05:50:26;99547.31;;;8.01;100.00
21234;BME280;10774;42.178;26.578;2023-04-05T05:53:00;99544.69;;;8.16;100.00
21234;BME280;10774;42.178;26.578;2023-04-05T05:55:26;99543.59;;;8.34;100.00
21234;BME280;10774;42.178;26.578;2023-04-05T05:57:51;99549.47;;;8.55;100.00
21234;BME280;10774;42.178;26.578;2023-04-05T06:00:18;99545.06;;;8.68;100.00
21234;BME280;10774;42.178;26.578;2023-04-05T06:02:44;99552.13;;;8.69;100.00
21234;BME280;10774;42.178;26.578;2023-04-05T06:05:10;99552.59;;;8.61;100.00
21234;BME280;10774;42.178;26.578;2023-04-05T06:07:36;99553.47;;;8.62;100.00
21234;BME280;10774;42.178;26.578;2023-04-05T06:10:03;99552.03;;;8.56;99.95
21234;BME280;10774;42.178;26.578;2023-04-05T06:12:29;99549.72;;;8.79;99.01
21234;BME280;10774;42.178;26.578;2023-04-05T06:14:54;99559.28;;;8.97;98.23
21234;BME280;10774;42.178;26.578;2023-04-05T06:17:20;99561.91;;;9.26;97.98
21234;BME280;10774;42.178;26.578;2023-04-05T06:19:45;99564.75;;;9.64;96.68
21234;BME280;10774;42.178;26.578;2023-04-05T06:22:11;99563.69;;;9.66;94.81
21234;BME280;10774;42.178;26.578;2023-04-05T06:24:36;99562.88;;;9.79;93.30
21234;BME280;10774;42.178;26.578;2023-04-05T06:27:01;99554.97;;;9.90;93.30
21234;BME280;10774;42.178;26.578;2023-04-05T06:29:27;99563.56;;;9.95;91.43
21234;BME280;10774;42.178;26.578;2023-04-05T06:31:53;99571.06;;;10.30;92.35
21234;BME280;10774;42.178;26.578;2023-04-05T06:34:19;99569.03;;;10.46;89.11
21234;BME280;10774;42.178;26.578;2023-04-05T06:36:44;99577.09;;;10.46;86.25
21234;BME280;10774;42.178;26.578;2023-04-05T06:39:10;99578.50;;;10.77;82.71
21234;BME280;10774;42.178;26.578;2023-04-05T06:41:36;99579.84;;;8.97;87.74
21234;BME280;10774;42.178;26.578;2023-04-05T06:44:01;99581.75;;;9.50;89.74
21234;BME280;10774;42.178;26.578;2023-04-05T06:46:27;99581.16;;;9.99;90.12
21234;BME280;10774;42.178;26.578;2023-04-05T06:48:53;99593.31;;;10.17;87.05
21234;BME280;10774;42.178;26.578;2023-04-05T06:51:18;99587.91;;;10.32;87.60
21234;BME280;10774;42.178;26.578;2023-04-05T06:53:44;99592.03;;;10.63;88.18
21234;BME280;10774;42.178;26.578;2023-04-05T06:56:09;99589.22;;;10.90;81.79
21234;BME280;10774;42.178;26.578;2023-04-05T06:58:35;99595.66;;;11.00;79.07
21234;BME280;10774;42.178;26.578;2023-04-05T07:01:01;99597.81;;;11.08;77.57
21234;BME280;10774;42.178;26.578;2023-04-05T07:03:27;99595.22;;;10.81;81.21
21234;BME280;10774;42.178;26.578;2023-04-05T07:05:53;99595.19;;;11.19;84.17
21234;BME280;10774;42.178;26.578;2023-04-05T07:08:22;99609.78;;;11.27;80.45
21234;BME280;10774;42.178;26.578;2023-04-05T07:10:48;99607.16;;;11.51;77.64
21234;BME280;10774;42.178;26.578;2023-04-05T07:13:14;99604.47;;;11.75;76.40
21234;BME280;10774;42.178;26.578;2023-04-05T07:15:40;99610.59;;;10.13;77.43
21234;BME280;10774;42.178;26.578;2023-04-05T07:18:05;99620.13;;;10.05;85.95
21234;BME280;10774;42.178;26.578;2023-04-05T07:20:30;99607.28;;;10.88;84.59
21234;BME280;10774;42.178;26.578;2023-04-05T07:22:56;99619.75;;;11.38;79.61
21234;BME280;10774;42.178;26.578;2023-04-05T07:25:22;99614.34;;;11.88;73.99
21234;BME280;10774;42.178;26.578;2023-04-05T07:27:48;99617.84;;;12.01;74.25
21234;BME280;10774;42.178;26.578;2023-04-05T07:30:14;99621.25;;;11.79;72.68
21234;BME280;10774;42.178;26.578;2023-04-05T07:32:39;99605.88;;;12.05;68.45
21234;BME280;10774;42.178;26.578;2023-04-05T07:35:05;99619.41;;;11.43;69.12
21234;BME280;10774;42.178;26.578;2023-04-05T07:37:31;99610.94;;;9.82;83.22
21234;BME280;10774;42.178;26.578;2023-04-05T07:39:56;99611.63;;;9.71;82.44
21234;BME280;10774;42.178;26.578;2023-04-05T07:42:23;99622.34;;;10.38;79.73
21234;BME280;10774;42.178;26.578;2023-04-05T07:44:48;99625.31;;;10.98;74.25
21234;BME280;10774;42.178;26.578;2023-04-05T07:47:15;99630.22;;;11.17;72.96
21234;BME280;10774;42.178;26.578;2023-04-05T07:49:41;99622.91;;;11.07;72.50
21234;BME280;10774;42.178;26.578;2023-04-05T07:52:06;99620.78;;;10.99;76.75
21234;BME280;10774;42.178;26.578;2023-04-05T07:54:32;99623.00;;;10.29;76.33
21234;BME280;10774;42.178;26.578;2023-04-05T07:57:02;99627.19;;;9.79;76.96
21234;BME280;10774;42.178;26.578;2023-04-05T07:59:28;99626.97;;;8.99;83.80
21234;BME280;10774;42.178;26.578;2023-04-05T08:01:53;99627.91;;;9.95;79.48
21234;BME280;10774;42.178;26.578;2023-04-05T08:04:19;99631.97;;;10.93;72.92
21234;BME280;10774;42.178;26.578;2023-04-05T08:06:46;99637.19;;;11.69;65.30
21234;BME280;10774;42.178;26.578;2023-04-05T08:09:11;99642.22;;;10.08;69.98
21234;BME280;10774;42.178;26.578;2023-04-05T08:11:37;99632.28;;;10.50;72.27
21234;BME280;10774;42.178;26.578;2023-04-05T08:14:02;99639.47;;;11.00;72.72
21234;BME280;10774;42.178;26.578;2023-04-05T08:16:28;99648.25;;;11.41;69.10
21234;BME280;10774;42.178;26.578;2023-04-05T08:18:53;99641.25;;;11.75;66.63
21234;BME280;10774;42.178;26.578;2023-04-05T08:21:19;99641.19;;;12.00;64.16
21234;BME280;10774;42.178;26.578;2023-04-05T08:23:44;99647.59;;;10.48;70.42
21234;BME280;10774;42.178;26.578;2023-04-05T08:26:10;99646.34;;;9.87;75.47
21234;BME280;10774;42.178;26.578;2023-04-05T08:28:35;99650.84;;;10.79;70.02
21234;BME280;10774;42.178;26.578;2023-04-05T08:31:01;99649.69;;;11.08;66.70
21234;BME280;10774;42.178;26.578;2023-04-05T08:33:26;99640.38;;;11.38;67.26
21234;BME280;10774;42.178;26.578;2023-04-05T08:35:55;99647.41;;;11.77;66.13
21234;BME280;10774;42.178;26.578;2023-04-05T08:38:21;99658.44;;;11.98;65.51
21234;BME280;10774;42.178;26.578;2023-04-05T08:40:47;99658.06;;;12.26;63.09
21234;BME280;10774;42.178;26.578;2023-04-05T08:43:27;99659.41;;;12.56;62.53
21234;BME280;10774;42.178;26.578;2023-04-05T08:45:58;99653.38;;;12.17;64.09
21234;BME280;10774;42.178;26.578;2023-04-05T08:48:25;99649.00;;;12.27;63.32
21234;BME280;10774;42.178;26.578;2023-04-05T08:50:53;99648.75;;;11.95;63.55
21234;BME280;10774;42.178;26.578;2023-04-05T08:53:20;99652.88;;;11.88;65.29
21234;BME280;10774;42.178;26.578;2023-04-05T08:55:50;99650.41;;;10.59;70.41
21234;BME280;10774;42.178;26.578;2023-04-05T08:58:16;99648.56;;;10.07;71.80
21234;BME280;10774;42.178;26.578;2023-04-05T09:00:42;99636.88;;;10.48;74.63
21234;BME280;10774;42.178;26.578;2023-04-05T09:03:22;99645.28;;;10.82;71.02
21234;BME280;10774;42.178;26.578;2023-04-05T09:05:50;99655.56;;;10.50;69.94
21234;BME280;10774;42.178;26.578;2023-04-05T09:08:17;99654.72;;;9.95;75.78
21234;BME280;10774;42.178;26.578;2023-04-05T09:10:43;99656.31;;;10.64;78.03
21234;BME280;10774;42.178;26.578;2023-04-05T09:13:08;99662.84;;;11.49;70.27
21234;BME280;10774;42.178;26.578;2023-04-05T09:15:36;99657.13;;;11.91;67.61
21234;BME280;10774;42.178;26.578;2023-04-05T09:18:01;99663.97;;;11.71;63.76
21234;BME280;10774;42.178;26.578;2023-04-05T09:20:27;99665.34;;;11.76;60.28
21234;BME280;10774;42.178;26.578;2023-04-05T09:22:55;99668.19;;;10.35;71.11
21234;BME280;10774;42.178;26.578;2023-04-05T09:25:38;99663.97;;;11.09;66.91
21234;BME280;10774;42.178;26.578;2023-04-05T09:28:05;99655.03;;;12.31;65.84
21234;BME280;10774;42.178;26.578;2023-04-05T09:30:32;99660.25;;;13.14;59.47
21234;BME280;10774;42.178;26.578;2023-04-05T09:32:58;99655.09;;;13.11;61.16
21234;BME280;10774;42.178;26.578;2023-04-05T09:35:27;99658.50;;;13.02;60.63
21234;BME280;10774;42.178;26.578;2023-04-05T09:37:55;99657.59;;;12.68;63.16
21234;BME280;10774;42.178;26.578;2023-04-05T09:40:22;99662.44;;;12.87;60.41
21234;BME280;10774;42.178;26.578;2023-04-05T09:42:48;99657.19;;;13.19;58.66
21234;BME280;10774;42.178;26.578;2023-04-05T09:45:15;99657.28;;;13.17;59.30
21234;BME280;10774;42.178;26.578;2023-04-05T09:47:53;99656.88;;;13.34;59.97
21234;BME280;10774;42.178;26.578;2023-04-05T09:50:20;99664.28;;;12.97;57.72
21234;BME280;10774;42.178;26.578;2023-04-05T09:52:45;99655.38;;;13.30;58.49
21234;BME280;10774;42.178;26.578;2023-04-05T09:55:11;99660.28;;;13.48;58.44
21234;BME280;10774;42.178;26.578;2023-04-05T09:57:39;99653.81;;;14.05;56.35
21234;BME280;10774;42.178;26.578;2023-04-05T10:00:15;99658.78;;;14.21;55.71
21234;BME280;10774;42.178;26.578;2023-04-05T10:02:41;99656.50;;;14.05;55.49
21234;BME280;10774;42.178;26.578;2023-04-05T10:05:09;99651.81;;;14.07;56.30
21234;BME280;10774;42.178;26.578;2023-04-05T10:07:38;99655.97;;;12.19;59.65
21234;BME280;10774;42.178;26.578;2023-04-05T10:10:04;99648.41;;;11.63;66.59
21234;BME280;10774;42.178;26.578;2023-04-05T10:12:31;99644.44;;;12.98;64.52
21234;BME280;10774;42.178;26.578;2023-04-05T10:14:57;99643.06;;;12.81;61.04
21234;BME280;10774;42.178;26.578;2023-04-05T10:17:38;99654.00;;;12.45;60.76
21234;BME280;10774;42.178;26.578;2023-04-05T10:20:17;99653.00;;;12.46;59.38
21234;BME280;10774;42.178;26.578;2023-04-05T10:23:06;99653.50;;;11.92;59.00
21234;BME280;10774;42.178;26.578;2023-04-05T10:25:53;99651.59;;;12.75;64.06
21234;BME280;10774;42.178;26.578;2023-04-05T10:28:35;99653.06;;;13.26;58.00
21234;BME280;10774;42.178;26.578;2023-04-05T10:33:58;99645.81;;;13.38;57.89
21234;BME280;10774;42.178;26.578;2023-04-05T10:39:25;99653.09;;;14.67;53.27
21234;BME280;10774;42.178;26.578;2023-04-05T10:42:05;99644.50;;;14.30;53.83
21234;BME280;10774;42.178;26.578;2023-04-05T10:44:33;99648.72;;;13.68;55.35
21234;BME280;10774;42.178;26.578;2023-04-05T10:47:01;99648.25;;;14.71;52.75
21234;BME280;10774;42.178;26.578;2023-04-05T10:49:38;99634.91;;;15.21;52.06
21234;BME280;10774;42.178;26.578;2023-04-05T10:52:05;99637.75;;;16.00;51.28
21234;BME280;10774;42.178;26.578;2023-04-05T10:54:32;99640.31;;;16.50;51.31
21234;BME280;10774;42.178;26.578;2023-04-05T10:57:00;99638.34;;;16.52;49.38
21234;BME280;10774;42.178;26.578;2023-04-05T10:59:34;99636.31;;;16.63;47.35
21234;BME280;10774;42.178;26.578;2023-04-05T11:02:01;99627.50;;;16.52;46.60
21234;BME280;10774;42.178;26.578;2023-04-05T11:04:28;99627.50;;;16.03;48.31
21234;BME280;10774;42.178;26.578;2023-04-05T11:09:35;99632.53;;;15.06;49.48
21234;BME280;10774;42.178;26.578;2023-04-05T11:12:01;99630.09;;;14.73;49.57
21234;BME280;10774;42.178;26.578;2023-04-05T11:16:58;99628.78;;;14.35;51.89
21234;BME280;10774;42.178;26.578;2023-04-05T11:22:08;99628.34;;;13.75;53.18
21234;BME280;10774;42.178;26.578;2023-04-05T11:24:52;99629.94;;;13.89;52.98
21234;BME280;10774;42.178;26.578;2023-04-05T11:27:31;99631.72;;;14.00;52.90
21234;BME280;10774;42.178;26.578;2023-04-05T11:29:58;99628.84;;;14.12;52.98
21234;BME280;10774;42.178;26.578;2023-04-05T11:32:44;99621.78;;;14.00;52.76
21234;BME280;10774;42.178;26.578;2023-04-05T11:35:17;99623.75;;;13.66;53.51
21234;BME280;10774;42.178;26.578;2023-04-05T11:40:31;99628.31;;;13.86;52.51
21234;BME280;10774;42.178;26.578;2023-04-05T11:43:10;99623.69;;;13.89;53.41
21234;BME280;10774;42.178;26.578;2023-04-05T11:45:40;99624.94;;;12.83;56.41
21234;BME280;10774;42.178;26.578;2023-04-05T11:48:12;99621.75;;;11.97;58.99
21234;BME280;10774;42.178;26.578;2023-04-05T11:50:39;99622.56;;;11.73;60.94
21234;BME280;10774;42.178;26.578;2023-04-05T11:53:11;99617.81;;;11.77;62.63
21234;BME280;10774;42.178;26.578;2023-04-05T11:55:38;99617.31;;;11.22;66.01
21234;BME280;10774;42.178;26.578;2023-04-05T11:58:16;99624.59;;;11.33;65.01
21234;BME280;10774;42.178;26.578;2023-04-05T12:00:44;99623.78;;;11.20;68.32
21234;BME280;10774;42.178;26.578;2023-04-05T12:03:14;99623.00;;;11.31;67.00
21234;BME280;10774;42.178;26.578;2023-04-05T12:08:15;99620.84;;;12.20;67.75
21234;BME280;10774;42.178;26.578;2023-04-05T12:10:40;99625.56;;;11.82;63.28
21234;BME280;10774;42.178;26.578;2023-04-05T12:13:06;99623.72;;;11.45;64.68
21234;BME280;10774;42.178;26.578;2023-04-05T12:15:36;99620.19;;;12.06;66.73
21234;BME280;10774;42.178;26.578;2023-04-05T12:18:01;99624.31;;;12.34;61.70
21234;BME280;10774;42.178;26.578;2023-04-05T12:20:27;99613.69;;;11.97;63.00
21234;BME280;10774;42.178;26.578;2023-04-05T12:22:54;99611.81;;;12.56;61.79
21234;BME280;10774;42.178;26.578;2023-04-05T12:25:20;99605.09;;;12.85;62.62
21234;BME280;10774;42.178;26.578;2023-04-05T12:27:46;99606.47;;;13.01;63.91
21234;BME280;10774;42.178;26.578;2023-04-05T12:30:16;99610.56;;;13.29;62.93
21234;BME280;10774;42.178;26.578;2023-04-05T12:32:49;99611.47;;;12.83;61.88
21234;BME280;10774;42.178;26.578;2023-04-05T12:35:16;99611.84;;;13.01;58.77
21234;BME280;10774;42.178;26.578;2023-04-05T12:37:42;99613.81;;;12.77;57.34
21234;BME280;10774;42.178;26.578;2023-04-05T12:40:09;99605.72;;;12.88;57.60
21234;BME280;10774;42.178;26.578;2023-04-05T12:42:36;99618.56;;;12.85;58.56
21234;BME280;10774;42.178;26.578;2023-04-05T12:45:09;99620.69;;;13.15;56.88
21234;BME280;10774;42.178;26.578;2023-04-05T12:47:46;99625.22;;;13.14;56.38
21234;BME280;10774;42.178;26.578;2023-04-05T12:50:14;99616.38;;;13.01;56.95
21234;BME280;10774;42.178;26.578;2023-04-05T12:53:15;99624.09;;;13.05;56.59
21234;BME280;10774;42.178;26.578;2023-04-05T12:56:05;99614.94;;;13.19;56.76
21234;BME280;10774;42.178;26.578;2023-04-05T12:58:33;99605.72;;;13.11;56.58
21234;BME280;10774;42.178;26.578;2023-04-05T13:00:59;99616.41;;;12.43;59.17
21234;BME280;10774;42.178;26.578;2023-04-05T13:03:25;99619.78;;;12.80;58.09
21234;BME280;10774;42.178;26.578;2023-04-05T13:05:51;99617.84;;;12.94;57.47
21234;BME280;10774;42.178;26.578;2023-04-05T13:08:16;99622.53;;;13.03;56.52
21234;BME280;10774;42.178;26.578;2023-04-05T13:10:46;99615.16;;;12.94;56.60
21234;BME280;10774;42.178;26.578;2023-04-05T13:13:12;99615.88;;;12.96;57.33
21234;BME280;10774;42.178;26.578;2023-04-05T13:15:38;99619.34;;;12.98;55.37
21234;BME280;10774;42.178;26.578;2023-04-05T13:18:04;99616.38;;;13.01;55.76
21234;BME280;10774;42.178;26.578;2023-04-05T13:20:30;99615.75;;;12.75;58.64
21234;BME280;10774;42.178;26.578;2023-04-05T13:22:55;99620.28;;;12.74;60.06